Neva Corners, Wisconsin
Current Conditions -  °F | °C
As of 10:15 PM on Sunday 21 Dec 2014 (Local Time) from KAIG Reporting Station
Haze Haze  
Wind Chill: -6°   Ceiling: 500
Heat Index:   Visibility: 3mi
Dew Point:   Wind: 13mph
Humidity: 99%   Direction: 170°S
Pressure: 29.87"   Gusts: NA
Location:  45.2445°N, 89.211°W
Report Text: KAIG 220415Z AUTO 17011KT 3SM BR OVC005 00/00 A2987 RMK AO2 T10021003
Loading
Personal Weather Stations






























Interactive Weather Map New forecast layout! Learn more

10-Day Weather Forecast

Advertisements
Track Severe Weather on mobile